createdAt,value
2019-04-28T00:03:14.412Z,4.43
2019-04-28T00:08:20.810Z,6.00
2019-04-28T00:13:26.076Z,4.67
2019-04-28T00:18:32.852Z,3.97
2019-04-28T00:24:01.710Z,4.50
2019-04-28T00:29:07.072Z,5.87
2019-04-28T00:34:12.295Z,5.23
2019-04-28T00:39:17.809Z,5.40
2019-04-28T00:44:23.942Z,5.10
2019-04-28T00:49:47.337Z,6.40
2019-04-28T00:54:53.865Z,5.33
2019-04-28T00:59:59.461Z,6.70
2019-04-28T01:05:05.408Z,6.60
2019-04-28T01:10:11.549Z,6.67
2019-04-28T01:15:36.880Z,6.03
2019-04-28T01:20:42.341Z,8.17
2019-04-28T01:25:47.503Z,7.10
2019-04-28T01:31:10.354Z,8.03
2019-04-28T01:36:15.516Z,7.70
2019-04-28T01:41:20.605Z,7.67
2019-04-28T01:46:26.038Z,8.43
2019-04-28T01:51:31.272Z,9.68
2019-04-28T01:56:36.731Z,9.33
2019-04-28T02:01:42.187Z,9.80
2019-04-28T02:06:47.429Z,8.95
2019-04-28T02:11:52.863Z,8.07
2019-04-28T02:17:00.359Z,7.77
2019-04-28T02:22:23.553Z,9.93
2019-04-28T02:27:30.194Z,8.40
2019-04-28T02:32:35.879Z,11.43
2019-04-28T02:37:41.092Z,9.90
2019-04-28T02:42:46.327Z,8.88
2019-04-28T02:47:53.194Z,7.12
2019-04-28T02:53:14.553Z,7.37
2019-04-28T02:58:22.395Z,7.20
2019-04-28T03:03:26.938Z,8.60
2019-04-28T03:08:32.586Z,8.33
2019-04-28T03:13:37.730Z,8.67
2019-04-28T03:18:42.872Z,9.77
2019-04-28T03:23:48.028Z,8.80
2019-04-28T03:29:01.386Z,8.30
2019-04-28T03:34:07.914Z,6.10
2019-04-28T03:39:13.061Z,8.60
2019-04-28T03:44:20.616Z,7.40
2019-04-28T03:49:32.553Z,6.07
2019-04-28T03:54:40.684Z,4.47
2019-04-28T03:59:44.678Z,5.20
2019-04-28T04:04:52.679Z,6.55
2019-04-28T04:10:06.516Z,6.37
2019-04-28T04:15:23.395Z,8.30
2019-04-28T04:20:31.059Z,6.67
2019-04-28T04:25:36.484Z,7.57
2019-04-28T04:30:41.625Z,7.10
2019-04-28T04:35:46.769Z,7.90
2019-04-28T04:40:51.939Z,7.33
2019-04-28T04:46:15.776Z,7.28
2019-04-28T04:51:21.766Z,8.57
2019-04-28T04:56:30.207Z,6.67
2019-04-28T05:02:02.109Z,7.63
2019-04-28T05:07:07.695Z,8.77
2019-04-28T05:12:13.255Z,6.50
2019-04-28T05:17:20.310Z,6.87
2019-04-28T05:22:27.221Z,7.60
2019-04-28T05:27:32.664Z,10.10
2019-04-28T05:32:44.725Z,11.03
2019-04-28T05:37:45.130Z,9.50
2019-04-28T05:43:00.896Z,11.07
2019-04-28T05:48:08.953Z,7.67
2019-04-28T05:53:25.546Z,6.37
2019-04-28T05:58:40.172Z,6.87
2019-04-28T06:03:46.408Z,5.53
2019-04-28T06:09:06.495Z,9.83
2019-04-28T06:14:11.665Z,13.13
2019-04-28T06:19:17.184Z,14.87
2019-04-28T06:24:23.930Z,12.43
2019-04-28T06:29:29.449Z,5.90
2019-04-28T06:34:34.615Z,4.07
2019-04-28T06:39:39.913Z,6.40
2019-04-28T06:44:46.773Z,7.85
2019-04-28T06:49:52.028Z,8.48
2019-04-28T06:54:58.011Z,7.37
2019-04-28T07:00:05.520Z,6.67
2019-04-28T07:05:10.972Z,6.83
2019-04-28T07:10:16.645Z,10.20
2019-04-28T07:15:22.745Z,8.60
2019-04-28T07:20:53.298Z,9.20
2019-04-28T07:25:58.789Z,7.83
2019-04-28T07:31:04.303Z,8.13
2019-04-28T07:36:09.536Z,6.47
2019-04-28T07:41:14.698Z,7.97
2019-04-28T07:46:19.844Z,9.77
2019-04-28T07:51:27.778Z,7.07
2019-04-28T07:56:33.606Z,8.53
2019-04-28T08:01:39.179Z,8.87
2019-04-28T08:06:44.761Z,8.27
2019-04-28T08:11:50.000Z,10.45
2019-04-28T08:16:55.619Z,7.40
2019-04-28T08:22:00.860Z,11.38
2019-04-28T08:27:06.157Z,9.05
2019-04-28T08:32:33.526Z,11.18
2019-04-28T08:37:39.250Z,11.63
2019-04-28T08:42:44.500Z,11.93
2019-04-28T08:47:50.030Z,11.73
2019-04-28T08:52:55.264Z,8.58
2019-04-28T08:58:00.420Z,10.63
2019-04-28T09:03:06.291Z,8.70
2019-04-28T09:08:11.529Z,9.50
2019-04-28T09:13:16.696Z,12.57
2019-04-28T09:18:22.345Z,13.53
2019-04-28T09:23:27.506Z,12.17
2019-04-28T09:28:32.756Z,11.12
2019-04-28T09:33:38.008Z,11.25
2019-04-28T09:38:43.612Z,8.80
2019-04-28T09:44:05.794Z,7.70
2019-04-28T09:49:11.402Z,10.58
2019-04-28T09:54:17.069Z,10.40
2019-04-28T09:59:22.898Z,11.70
2019-04-28T10:04:40.641Z,13.48
2019-04-28T10:09:35.438Z,13.22
2019-04-28T10:14:40.681Z,9.00
2019-04-28T10:19:45.922Z,11.15
2019-04-28T10:24:51.160Z,9.60
2019-04-28T10:29:56.760Z,8.40
2019-04-28T10:35:02.130Z,9.65
2019-04-28T10:40:21.435Z,6.70
2019-04-28T10:45:28.705Z,11.88
2019-04-28T10:50:33.933Z,12.58
2019-04-28T10:55:39.177Z,11.43
2019-04-28T11:00:44.419Z,9.58
2019-04-28T11:05:50.068Z,8.28
2019-04-28T11:10:56.102Z,11.38
2019-04-28T11:16:01.362Z,12.13
2019-04-28T11:21:07.084Z,10.75
2019-04-28T11:26:12.718Z,8.85
2019-04-28T11:31:18.584Z,8.55
2019-04-28T11:36:24.275Z,7.75
2019-04-28T11:41:29.534Z,8.65
2019-04-28T11:46:34.783Z,10.38
2019-04-28T11:51:40.885Z,7.83
2019-04-28T11:56:46.127Z,6.87
2019-04-28T12:01:51.786Z,10.50
2019-04-28T12:06:57.035Z,10.60
2019-04-28T12:12:03.083Z,7.77
2019-04-28T12:17:26.813Z,9.00
2019-04-28T12:22:33.170Z,9.55
2019-04-28T12:27:38.427Z,8.35
2019-04-28T12:32:44.054Z,10.32
2019-04-28T12:37:49.381Z,10.03
2019-04-28T12:42:54.923Z,9.33
2019-04-28T12:48:00.157Z,9.33
2019-04-28T12:53:06.081Z,7.30
2019-04-28T12:58:11.367Z,8.05
2019-04-28T13:03:27.688Z,9.50
2019-04-28T13:08:33.268Z,8.20
2019-04-28T13:13:38.605Z,9.30
2019-04-28T13:18:43.848Z,7.60
2019-04-28T13:23:49.084Z,7.58
2019-04-28T13:28:55.389Z,9.55
2019-04-28T13:34:02.670Z,8.73
2019-04-28T13:39:11.472Z,7.55
2019-04-28T13:44:36.095Z,6.97
2019-04-28T13:49:53.467Z,9.63
2019-04-28T13:55:07.904Z,17.20
2019-04-28T14:00:14.898Z,10.47
2019-04-28T14:05:39.172Z,11.10
2019-04-28T14:10:44.697Z,12.03
2019-04-28T14:15:51.074Z,14.37
2019-04-28T14:20:56.318Z,11.05
2019-04-28T14:26:01.595Z,16.07
2019-04-28T14:31:07.108Z,14.85
2019-04-28T14:36:12.279Z,13.37
2019-04-28T14:41:17.784Z,12.33
2019-04-28T14:46:23.331Z,13.55
2019-04-28T14:51:28.999Z,12.70
2019-04-28T14:56:34.254Z,12.77
2019-04-28T15:02:10.604Z,13.27
2019-04-28T15:07:35.342Z,8.55
2019-04-28T15:12:40.554Z,8.75
2019-04-28T15:17:46.108Z,6.58
2019-04-28T15:22:51.332Z,6.10
2019-04-28T15:27:56.602Z,5.85
2019-04-28T15:33:02.478Z,6.75
2019-04-28T15:38:08.195Z,6.42
2019-04-28T15:43:13.437Z,6.92
2019-04-28T15:48:18.886Z,8.33
2019-04-28T15:53:24.606Z,6.95
2019-04-28T15:58:31.797Z,7.97
2019-04-28T16:03:37.547Z,8.23
2019-04-28T16:08:43.161Z,8.30
2019-04-28T16:13:48.453Z,11.12
2019-04-28T16:18:53.766Z,7.00
2019-04-28T16:23:59.093Z,6.08
2019-04-28T16:29:06.107Z,6.67
2019-04-28T16:34:12.335Z,10.72
2019-04-28T16:39:17.977Z,9.83
2019-04-28T16:44:23.195Z,9.15
2019-04-28T16:49:29.520Z,8.30
2019-04-28T16:54:34.837Z,7.67
2019-04-28T17:00:08.803Z,5.80
2019-04-28T17:05:16.042Z,8.65
2019-04-28T17:10:22.432Z,7.70
2019-04-28T17:15:30.221Z,7.25
2019-04-28T17:20:34.914Z,7.55
2019-04-28T17:25:40.306Z,7.42
2019-04-28T17:30:45.553Z,8.95
2019-04-28T17:35:51.866Z,9.23
2019-04-28T17:40:57.276Z,12.28
2019-04-28T17:46:02.696Z,7.45
2019-04-28T17:51:08.979Z,8.03
2019-04-28T17:56:14.349Z,8.83
2019-04-28T18:01:54.939Z,9.63
2019-04-28T18:07:08.016Z,9.00
2019-04-28T18:12:13.286Z,10.28
2019-04-28T18:17:46.563Z,9.75
2019-04-28T18:22:51.816Z,10.40
2019-04-28T18:27:57.082Z,9.43
2019-04-28T18:33:31.365Z,8.90
2019-04-28T18:38:48.014Z,7.67
2019-04-28T18:44:06.308Z,6.28
2019-04-28T18:49:11.660Z,8.45
2019-04-28T18:54:17.821Z,9.03
2019-04-28T18:59:24.386Z,6.03
2019-04-28T19:04:29.784Z,10.35
2019-04-28T19:09:46.147Z,5.67
2019-04-28T19:15:09.543Z,7.83
2019-04-28T19:20:15.126Z,9.20
2019-04-28T19:25:20.801Z,6.90
2019-04-28T19:30:26.513Z,8.28
2019-04-28T19:35:31.757Z,6.50
2019-04-28T19:40:37.987Z,8.73
2019-04-28T19:45:45.012Z,8.68
2019-04-28T19:50:50.983Z,5.92
2019-04-28T19:56:08.893Z,10.38
2019-04-28T20:01:19.648Z,9.30
2019-04-28T20:06:26.320Z,10.23
2019-04-28T20:11:31.592Z,8.93
2019-04-28T20:16:36.762Z,10.97
2019-04-28T20:21:43.099Z,10.80
2019-04-28T20:26:49.705Z,10.93
2019-04-28T20:31:55.011Z,9.88
2019-04-28T20:37:25.408Z,8.50
2019-04-28T20:43:01.861Z,9.25
2019-04-28T20:48:05.910Z,10.23
2019-04-28T20:53:11.552Z,9.47
2019-04-28T20:58:18.461Z,7.97
2019-04-28T21:03:24.492Z,13.13
2019-04-28T21:08:29.714Z,10.17
2019-04-28T21:13:34.958Z,11.03
2019-04-28T21:18:40.551Z,13.47
2019-04-28T21:23:45.716Z,9.10
2019-04-28T21:28:51.948Z,8.10
2019-04-28T21:33:57.649Z,9.03
2019-04-28T21:39:03.691Z,8.63
2019-04-28T21:44:31.668Z,10.18
2019-04-28T21:49:39.253Z,9.97
2019-04-28T21:54:44.796Z,11.13
2019-04-28T21:59:50.272Z,11.07
2019-04-28T22:04:56.087Z,13.30
2019-04-28T22:10:01.403Z,11.27
2019-04-28T22:15:06.742Z,13.30
2019-04-28T22:20:12.800Z,9.43
2019-04-28T22:25:21.025Z,9.87
2019-04-28T22:30:26.186Z,11.17
2019-04-28T22:35:31.730Z,13.63
2019-04-28T22:40:36.974Z,11.20
2019-04-28T22:45:42.495Z,11.23
2019-04-28T22:50:48.359Z,16.57
2019-04-28T22:56:10.659Z,10.23
2019-04-28T23:01:44.389Z,11.97
2019-04-28T23:06:50.668Z,10.00
2019-04-28T23:11:56.189Z,10.20
2019-04-28T23:17:01.657Z,8.70
2019-04-28T23:22:46.047Z,11.20
2019-04-28T23:27:39.387Z,17.87
2019-04-28T23:32:45.628Z,16.60
2019-04-28T23:37:50.846Z,18.47
2019-04-28T23:43:01.261Z,13.30
2019-04-28T23:48:07.209Z,12.80
2019-04-28T23:53:15.327Z,12.70
2019-04-28T23:58:20.462Z,12.57
